Terminal Aerodrome Forecast
Issued by NWS

Home | Current Version | Previous Version | Text Only | Print | Product List | Glossary On
Versions: 1 2 3 4 5 6 7 8 9 10 11 12 13 14 15 16
000
FTUS43 KAPX 261120
TAFTVC
TAF
KTVC 261120Z 2612/2712 33005KT P6SM SKC
     FM261400 35010KT P6SM SCT050
     FM261900 01010G18KT P6SM SCT060
     FM270200 33006KT P6SM BKN040=

USA.gov is the U.S. government's official web portal to all federal, state and local government web resources and services.